Blanding, Utah
Current Conditions -  °F | °C
As of 6:55 AM on Monday 24 Nov 2014 (Local Time) from KBDG Reporting Station
Clear Clear  
Wind Chill: 13°   Ceiling: Unl
Heat Index: 21°   Visibility: 10mi
Dew Point: 11°   Wind: 6mph
Humidity: 65%   Direction: 260°W
Pressure: 30.22"   Gusts: NA
Location:  37.62°N, 109.48°W
Report Text: KBDG 241355Z AUTO 26005KT 10SM CLR M06/M12 A3022 RMK AO1 T10611118
Loading
Personal Weather Stations






























Interactive Weather Map New forecast layout! Learn more

10-Day Weather Forecast

Advertisements
Track Severe Weather on mobile